createdAt,value
2023-02-06T00:00:48.289Z,-7.50
2023-02-06T00:03:15.265Z,-7.50
2023-02-06T00:05:41.868Z,-7.49
2023-02-06T00:08:08.487Z,-7.51
2023-02-06T00:10:35.248Z,-7.56
2023-02-06T00:13:01.833Z,-7.56
2023-02-06T00:15:28.422Z,-7.58
2023-02-06T00:17:55.009Z,-7.59
2023-02-06T00:20:21.700Z,-7.62
2023-02-06T00:22:48.248Z,-7.64
2023-02-06T00:25:14.817Z,-7.65
2023-02-06T00:27:41.502Z,-7.66
2023-02-06T00:30:08.408Z,-7.65
2023-02-06T00:32:35.273Z,-7.65
2023-02-06T00:35:01.950Z,-7.70
2023-02-06T00:37:28.526Z,-7.73
2023-02-06T00:39:55.114Z,-7.73
2023-02-06T00:42:21.674Z,-7.73
2023-02-06T00:44:48.247Z,-7.79
2023-02-06T00:47:14.819Z,-7.77
2023-02-06T00:49:41.457Z,-7.83
2023-02-06T00:52:08.046Z,-7.81
2023-02-06T00:54:34.602Z,-7.79
2023-02-06T00:57:01.166Z,-7.75
2023-02-06T00:59:27.729Z,-7.74
2023-02-06T01:01:54.382Z,-7.75
2023-02-06T01:04:21.088Z,-7.75
2023-02-06T01:06:47.675Z,-7.77
2023-02-06T01:09:14.230Z,-7.79
2023-02-06T01:11:40.796Z,-7.87
2023-02-06T01:14:07.357Z,-7.92
2023-02-06T01:16:33.920Z,-7.92
2023-02-06T01:19:00.499Z,-7.93
2023-02-06T01:21:27.067Z,-7.98
2023-02-06T01:23:54.873Z,-8.04
2023-02-06T01:26:26.685Z,-8.07
2023-02-06T01:28:54.296Z,-8.08
2023-02-06T01:31:24.066Z,-8.17
2023-02-06T01:33:52.156Z,-8.17
2023-02-06T01:36:20.790Z,-8.19
2023-02-06T01:38:48.542Z,-8.18
2023-02-06T01:41:16.940Z,-8.15
2023-02-06T01:43:46.582Z,-8.13
2023-02-06T01:46:13.608Z,-8.12
2023-02-06T01:48:47.688Z,-8.17
2023-02-06T01:51:19.708Z,-8.24
2023-02-06T01:53:50.663Z,-8.27
2023-02-06T01:56:19.647Z,-8.28
2023-02-06T01:58:50.004Z,-8.33
2023-02-06T02:01:17.073Z,-8.35
2023-02-06T02:03:47.725Z,-8.40
2023-02-06T02:06:18.945Z,-8.45
2023-02-06T02:08:50.037Z,-8.54
2023-02-06T02:11:43.279Z,-8.67
2023-02-06T02:14:12.426Z,-8.76
2023-02-06T02:16:57.114Z,-8.87
2023-02-06T02:19:32.902Z,-8.88
2023-02-06T02:22:18.486Z,-8.91
2023-02-06T02:25:18.741Z,-8.92
2023-02-06T02:28:19.375Z,-8.91
2023-02-06T02:31:08.558Z,-8.90
2023-02-06T02:34:11.949Z,-8.85
2023-02-06T02:37:10.721Z,-8.85
2023-02-06T02:39:40.568Z,-8.84
2023-02-06T02:42:19.025Z,-8.77
2023-02-06T02:45:40.634Z,-8.70
2023-02-06T02:48:23.247Z,-8.71
2023-02-06T02:50:50.742Z,-8.68
2023-02-06T02:53:17.524Z,-8.73
2023-02-06T02:55:44.186Z,-8.74
2023-02-06T02:58:15.045Z,-8.73
2023-02-06T03:00:47.519Z,-8.70
2023-02-06T03:03:15.786Z,-8.68
2023-02-06T03:06:05.113Z,-8.63
2023-02-06T03:08:38.501Z,-8.59
2023-02-06T03:11:17.397Z,-8.56
2023-02-06T03:14:02.508Z,-8.52
2023-02-06T03:16:38.014Z,-8.57
2023-02-06T03:19:15.185Z,-8.68
2023-02-06T03:21:43.463Z,-8.74
2023-02-06T03:24:19.352Z,-8.81
2023-02-06T03:26:49.167Z,-8.84
2023-02-06T03:29:17.831Z,-8.86
2023-02-06T03:31:49.736Z,-8.86
2023-02-06T03:34:31.341Z,-8.86
2023-02-06T03:36:58.062Z,-8.88
2023-02-06T03:39:24.709Z,-8.90
2023-02-06T03:41:52.895Z,-8.88
2023-02-06T03:44:24.762Z,-8.89
2023-02-06T03:46:55.710Z,-8.86
2023-02-06T03:49:26.891Z,-8.86
2023-02-06T03:52:06.105Z,-8.85
2023-02-06T03:54:35.886Z,-8.84
2023-02-06T03:57:05.371Z,-8.81
2023-02-06T03:59:32.494Z,-8.78
2023-02-06T04:02:02.955Z,-8.75
2023-02-06T04:04:34.976Z,-8.73
2023-02-06T04:07:15.774Z,-8.72
2023-02-06T04:09:42.333Z,-8.71
2023-02-06T04:12:09.306Z,-8.74
2023-02-06T04:14:36.895Z,-8.73
2023-02-06T04:17:06.854Z,-8.73
2023-02-06T04:19:34.279Z,-8.70
2023-02-06T04:22:02.104Z,-8.66
2023-02-06T04:24:30.854Z,-8.65
2023-02-06T04:26:57.636Z,-8.62
2023-02-06T04:29:24.183Z,-8.65
2023-02-06T04:31:51.233Z,-8.74
2023-02-06T04:34:18.135Z,-8.83
2023-02-06T04:36:44.774Z,-8.86
2023-02-06T04:39:11.353Z,-8.85
2023-02-06T04:41:37.920Z,-8.76
2023-02-06T04:44:04.620Z,-8.70
2023-02-06T04:46:31.407Z,-8.67
2023-02-06T04:48:57.959Z,-8.64
2023-02-06T04:51:24.585Z,-8.64
2023-02-06T04:53:51.128Z,-8.68
2023-02-06T04:56:17.764Z,-8.66
2023-02-06T04:58:44.363Z,-8.66
2023-02-06T05:01:11.391Z,-8.64
2023-02-06T05:03:38.048Z,-8.62
2023-02-06T05:06:05.497Z,-8.61
2023-02-06T05:08:32.035Z,-8.59
2023-02-06T05:10:58.661Z,-8.60
2023-02-06T05:13:25.505Z,-8.63
2023-02-06T05:15:52.140Z,-8.65
2023-02-06T05:18:19.068Z,-8.66
2023-02-06T05:20:45.711Z,-8.69
2023-02-06T05:23:12.311Z,-8.69
2023-02-06T05:25:40.796Z,-8.71
2023-02-06T05:28:08.825Z,-8.73
2023-02-06T05:30:36.152Z,-8.74
2023-02-06T05:33:02.797Z,-8.76
2023-02-06T05:35:29.666Z,-8.77
2023-02-06T05:37:57.519Z,-8.77
2023-02-06T05:40:24.585Z,-8.76
2023-02-06T05:42:51.318Z,-8.72
2023-02-06T05:45:18.034Z,-8.72
2023-02-06T05:47:44.685Z,-8.69
2023-02-06T05:50:11.232Z,-8.66
2023-02-06T05:52:37.813Z,-8.66
2023-02-06T05:55:04.820Z,-8.64
2023-02-06T05:57:31.414Z,-8.63
2023-02-06T05:59:58.036Z,-8.59
2023-02-06T06:02:24.610Z,-8.58
2023-02-06T06:04:51.345Z,-8.57
2023-02-06T06:07:17.971Z,-8.60
2023-02-06T06:09:44.528Z,-8.58
2023-02-06T06:12:11.106Z,-8.56
2023-02-06T06:14:37.780Z,-8.53
2023-02-06T06:17:04.408Z,-8.52
2023-02-06T06:19:31.029Z,-8.49
2023-02-06T06:21:58.399Z,-8.47
2023-02-06T06:24:26.443Z,-8.45
2023-02-06T06:26:53.332Z,-8.45
2023-02-06T06:29:19.932Z,-8.42
2023-02-06T06:31:46.698Z,-8.38
2023-02-06T06:34:13.266Z,-8.33
2023-02-06T06:36:39.854Z,-8.27
2023-02-06T06:39:06.412Z,-8.22
2023-02-06T06:41:33.475Z,-8.15
2023-02-06T06:44:00.775Z,-8.09
2023-02-06T06:46:27.373Z,-8.04
2023-02-06T06:48:53.943Z,-7.98
2023-02-06T06:51:21.116Z,-7.93
2023-02-06T06:53:47.724Z,-7.92
2023-02-06T06:56:15.183Z,-7.88
2023-02-06T06:58:42.324Z,-7.84
2023-02-06T07:01:09.462Z,-7.80
2023-02-06T07:03:36.737Z,-7.76
2023-02-06T07:06:05.322Z,-7.74
2023-02-06T07:08:31.925Z,-7.68
2023-02-06T07:10:58.536Z,-7.62
2023-02-06T07:13:25.301Z,-7.58
2023-02-06T07:15:51.929Z,-7.52
2023-02-06T07:18:18.518Z,-7.48
2023-02-06T07:20:45.152Z,-7.42
2023-02-06T07:23:11.776Z,-7.36
2023-02-06T07:25:38.571Z,-7.35
2023-02-06T07:28:05.416Z,-7.28
2023-02-06T07:30:32.038Z,-7.18
2023-02-06T07:32:58.671Z,-7.10
2023-02-06T07:35:25.475Z,-6.97
2023-02-06T07:37:55.168Z,-6.87
2023-02-06T07:40:22.124Z,-6.78
2023-02-06T07:42:48.711Z,-6.64
2023-02-06T07:45:15.655Z,-6.48
2023-02-06T07:47:42.829Z,-6.33
2023-02-06T07:50:10.192Z,-6.18
2023-02-06T07:52:37.403Z,-6.03
2023-02-06T07:55:04.521Z,-5.90
2023-02-06T07:57:31.559Z,-5.73
2023-02-06T07:59:58.167Z,-5.55
2023-02-06T08:02:24.991Z,-5.36
2023-02-06T08:04:51.549Z,-5.19
2023-02-06T08:07:18.336Z,-4.99
2023-02-06T08:09:45.095Z,-4.75
2023-02-06T08:12:12.140Z,-4.41
2023-02-06T08:14:39.196Z,-4.19
2023-02-06T08:17:05.979Z,-3.94
2023-02-06T08:19:32.562Z,-3.68
2023-02-06T08:21:59.147Z,-3.44
2023-02-06T08:24:25.778Z,-3.20
2023-02-06T08:26:52.395Z,-2.90
2023-02-06T08:29:19.121Z,-2.64
2023-02-06T08:31:46.074Z,-2.43
2023-02-06T08:34:15.092Z,-2.24
2023-02-06T08:36:43.566Z,-2.03
2023-02-06T08:39:13.353Z,-1.80
2023-02-06T08:41:41.309Z,-1.60
2023-02-06T08:44:11.899Z,-1.44
2023-02-06T08:46:39.773Z,-1.28
2023-02-06T08:49:11.338Z,-1.09
2023-02-06T08:51:37.942Z,-0.90
2023-02-06T08:54:07.411Z,-0.68
2023-02-06T08:56:35.518Z,-0.44
2023-02-06T08:59:02.938Z,-0.25
2023-02-06T09:01:32.002Z,0.02
2023-02-06T09:04:01.067Z,0.26
2023-02-06T09:06:28.387Z,0.55
2023-02-06T09:08:56.963Z,0.88
2023-02-06T09:11:25.537Z,1.13
2023-02-06T09:13:57.990Z,1.30
2023-02-06T09:16:26.016Z,1.61
2023-02-06T09:18:56.257Z,1.93
2023-02-06T09:21:24.991Z,2.19
2023-02-06T09:23:53.925Z,2.45
2023-02-06T09:26:24.160Z,2.73
2023-02-06T09:28:54.673Z,3.05
2023-02-06T09:31:21.235Z,3.35
2023-02-06T09:33:47.781Z,3.67
2023-02-06T09:36:17.250Z,4.01
2023-02-06T09:38:47.069Z,4.51
2023-02-06T09:41:25.300Z,4.94
2023-02-06T09:43:54.667Z,5.17
2023-02-06T09:46:28.137Z,5.50
2023-02-06T09:48:59.009Z,5.99
2023-02-06T09:51:52.165Z,6.26
2023-02-06T09:54:31.457Z,6.42
2023-02-06T09:57:21.654Z,6.73
2023-02-06T09:59:56.362Z,6.77
2023-02-06T10:02:25.948Z,7.15
2023-02-06T10:04:58.640Z,7.48
2023-02-06T10:08:03.245Z,7.76
2023-02-06T10:10:55.614Z,7.82
2023-02-06T10:13:36.200Z,7.24
2023-02-06T10:16:28.085Z,7.19
2023-02-06T10:19:00.917Z,7.20
2023-02-06T10:21:43.511Z,7.58
2023-02-06T10:24:22.325Z,7.81
2023-02-06T10:26:51.934Z,8.05
2023-02-06T10:29:24.935Z,8.00
2023-02-06T10:32:15.917Z,8.62
2023-02-06T10:35:01.103Z,9.10
2023-02-06T10:37:50.504Z,9.25
2023-02-06T10:40:28.611Z,9.71
2023-02-06T10:42:59.632Z,9.38
2023-02-06T10:46:00.104Z,10.21
2023-02-06T10:48:34.552Z,10.43
2023-02-06T10:51:16.236Z,10.40
2023-02-06T10:53:54.650Z,11.01
2023-02-06T10:56:26.526Z,11.05
2023-02-06T10:59:00.281Z,11.23
2023-02-06T11:01:34.455Z,11.55
2023-02-06T11:04:15.526Z,11.04
2023-02-06T11:06:43.051Z,10.72
2023-02-06T11:09:10.359Z,10.79
2023-02-06T11:11:41.727Z,11.07
2023-02-06T11:14:17.564Z,10.76
2023-02-06T11:16:46.027Z,10.89
2023-02-06T11:19:25.385Z,10.61
2023-02-06T11:22:08.645Z,10.46
2023-02-06T11:24:39.126Z,10.38
2023-02-06T11:27:20.525Z,10.63
2023-02-06T11:29:51.968Z,11.14
2023-02-06T11:33:02.535Z,11.71
2023-02-06T11:35:30.457Z,11.32
2023-02-06T11:38:31.753Z,11.26
2023-02-06T11:41:05.938Z,11.23
2023-02-06T11:43:54.375Z,11.73
2023-02-06T11:46:29.763Z,12.19
2023-02-06T11:48:56.305Z,12.40
2023-02-06T11:51:24.290Z,12.55
2023-02-06T11:53:59.212Z,11.61
2023-02-06T11:56:26.515Z,11.62
2023-02-06T11:59:06.034Z,11.24
2023-02-06T12:01:45.114Z,10.66
2023-02-06T12:04:25.098Z,10.72
2023-02-06T12:07:19.733Z,9.96
2023-02-06T12:09:46.307Z,10.26
2023-02-06T12:12:25.632Z,10.57
2023-02-06T12:15:36.276Z,10.57
2023-02-06T12:18:02.860Z,10.74
2023-02-06T12:20:35.104Z,11.21
2023-02-06T12:23:20.573Z,11.41
2023-02-06T12:25:52.735Z,11.80
2023-02-06T12:28:47.521Z,11.97
2023-02-06T12:31:21.898Z,12.50
2023-02-06T12:33:55.270Z,12.15
2023-02-06T12:36:25.789Z,12.31
2023-02-06T12:39:05.681Z,12.61
2023-02-06T12:41:40.876Z,11.87
2023-02-06T12:44:16.635Z,11.78
2023-02-06T12:46:45.212Z,11.54
2023-02-06T12:49:20.001Z,11.94
2023-02-06T12:51:52.435Z,11.72
2023-02-06T12:54:28.542Z,11.52
2023-02-06T12:57:04.181Z,10.98
2023-02-06T12:59:58.977Z,10.90
2023-02-06T13:02:52.958Z,10.58
2023-02-06T13:05:25.238Z,10.27
2023-02-06T13:07:55.312Z,10.18
2023-02-06T13:10:26.444Z,9.35
2023-02-06T13:12:55.474Z,9.58
2023-02-06T13:15:25.043Z,9.77
2023-02-06T13:17:51.877Z,9.40
2023-02-06T13:20:20.433Z,9.65
2023-02-06T13:22:50.087Z,9.84
2023-02-06T13:25:25.759Z,10.25
2023-02-06T13:27:53.945Z,9.73
2023-02-06T13:30:29.598Z,9.79
2023-02-06T13:33:17.649Z,9.90
2023-02-06T13:36:00.053Z,10.35
2023-02-06T13:38:28.583Z,10.59
2023-02-06T13:41:15.456Z,11.57
2023-02-06T13:43:55.632Z,12.01
2023-02-06T13:46:29.338Z,12.18
2023-02-06T13:49:47.935Z,12.01
2023-02-06T13:52:14.492Z,12.46
2023-02-06T13:54:56.277Z,11.89
2023-02-06T13:57:43.952Z,11.13
2023-02-06T14:00:28.840Z,10.04
2023-02-06T14:03:06.583Z,10.32
2023-02-06T14:06:02.178Z,10.01
2023-02-06T14:09:08.803Z,9.89
2023-02-06T14:11:38.109Z,10.09
2023-02-06T14:14:14.755Z,10.64
2023-02-06T14:17:16.891Z,10.27
2023-02-06T14:19:48.223Z,10.18
2023-02-06T14:22:42.758Z,9.96
2023-02-06T14:25:14.522Z,10.46
2023-02-06T14:28:02.399Z,10.17
2023-02-06T14:30:38.490Z,9.77
2023-02-06T14:33:23.563Z,8.93
2023-02-06T14:36:25.145Z,9.04
2023-02-06T14:39:41.513Z,8.46
2023-02-06T14:42:24.334Z,8.40
2023-02-06T14:45:13.800Z,8.24
2023-02-06T14:47:43.202Z,8.20
2023-02-06T14:50:18.706Z,8.54
2023-02-06T14:52:49.556Z,8.63
2023-02-06T14:55:43.464Z,8.35
2023-02-06T14:58:27.475Z,7.60
2023-02-06T15:00:56.176Z,7.06
2023-02-06T15:03:27.144Z,6.76
2023-02-06T15:06:10.115Z,6.52
2023-02-06T15:08:36.802Z,5.41
2023-02-06T15:11:06.996Z,5.16
2023-02-06T15:13:35.398Z,4.86
2023-02-06T15:16:12.721Z,4.66
2023-02-06T15:18:39.328Z,3.97
2023-02-06T15:21:12.307Z,3.91
2023-02-06T15:23:50.760Z,3.80
2023-02-06T15:26:35.477Z,3.51
2023-02-06T15:29:05.201Z,3.36
2023-02-06T15:31:32.310Z,3.22
2023-02-06T15:34:01.238Z,2.86
2023-02-06T15:36:39.200Z,2.76
2023-02-06T15:39:09.588Z,2.50
2023-02-06T15:41:37.069Z,2.21
2023-02-06T15:44:32.198Z,2.21
2023-02-06T15:47:01.148Z,2.11
2023-02-06T15:49:41.497Z,2.05
2023-02-06T15:52:08.402Z,1.82
2023-02-06T15:54:35.002Z,1.68
2023-02-06T15:57:07.783Z,1.62
2023-02-06T15:59:37.263Z,1.46
2023-02-06T16:02:04.475Z,1.03
2023-02-06T16:04:37.054Z,0.97
2023-02-06T16:07:06.719Z,0.86
2023-02-06T16:09:40.906Z,0.71
2023-02-06T16:12:08.420Z,0.51
2023-02-06T16:14:38.033Z,0.26
2023-02-06T16:17:13.716Z,0.15
2023-02-06T16:19:47.878Z,-0.06
2023-02-06T16:22:23.731Z,-0.20
2023-02-06T16:24:53.343Z,-0.32
2023-02-06T16:27:26.117Z,-0.30
2023-02-06T16:29:57.413Z,-0.35
2023-02-06T16:32:29.969Z,-0.29
2023-02-06T16:34:56.563Z,-0.41
2023-02-06T16:37:26.219Z,-0.59
2023-02-06T16:39:53.533Z,-0.76
2023-02-06T16:42:34.755Z,-0.83
2023-02-06T16:45:08.205Z,-0.95
2023-02-06T16:47:34.844Z,-0.91
2023-02-06T16:50:01.566Z,-1.01
2023-02-06T16:52:31.413Z,-1.22
2023-02-06T16:54:59.266Z,-1.27
2023-02-06T16:57:38.174Z,-1.38
2023-02-06T17:00:26.618Z,-1.39
2023-02-06T17:02:54.174Z,-1.29
2023-02-06T17:05:23.179Z,-1.42
2023-02-06T17:07:50.869Z,-1.54
2023-02-06T17:10:23.975Z,-1.62
2023-02-06T17:12:50.911Z,-1.64
2023-02-06T17:15:19.158Z,-1.76
2023-02-06T17:17:46.270Z,-1.86
2023-02-06T17:20:32.726Z,-1.94
2023-02-06T17:22:59.814Z,-2.04
2023-02-06T17:25:26.544Z,-2.09
2023-02-06T17:27:53.844Z,-2.17
2023-02-06T17:30:22.966Z,-2.23
2023-02-06T17:32:49.771Z,-2.31
2023-02-06T17:35:16.985Z,-2.33
2023-02-06T17:37:43.857Z,-2.34
2023-02-06T17:40:28.762Z,-2.45
2023-02-06T17:42:56.373Z,-2.47
2023-02-06T17:45:23.022Z,-2.51
2023-02-06T17:47:50.151Z,-2.61
2023-02-06T17:50:22.099Z,-2.61
2023-02-06T17:52:48.924Z,-2.63
2023-02-06T17:55:16.698Z,-2.65
2023-02-06T17:57:43.393Z,-2.66
2023-02-06T18:00:14.783Z,-2.59
2023-02-06T18:02:43.015Z,-2.63
2023-02-06T18:05:09.781Z,-2.63
2023-02-06T18:07:38.534Z,-2.54
2023-02-06T18:10:06.486Z,-2.53
2023-02-06T18:12:33.073Z,-2.72
2023-02-06T18:14:59.990Z,-2.77
2023-02-06T18:17:26.596Z,-2.75
2023-02-06T18:19:53.165Z,-2.72
2023-02-06T18:22:22.056Z,-2.80
2023-02-06T18:24:50.035Z,-2.90
2023-02-06T18:27:18.560Z,-2.97
2023-02-06T18:29:50.156Z,-2.97
2023-02-06T18:32:18.088Z,-3.04
2023-02-06T18:34:44.821Z,-3.13
2023-02-06T18:37:11.461Z,-3.12
2023-02-06T18:39:38.709Z,-3.12
2023-02-06T18:42:24.117Z,-3.15
2023-02-06T18:44:50.686Z,-3.20
2023-02-06T18:47:18.837Z,-3.16
2023-02-06T18:49:45.576Z,-3.21
2023-02-06T18:52:12.401Z,-3.28
2023-02-06T18:54:39.538Z,-3.37
2023-02-06T18:57:06.699Z,-3.42
2023-02-06T18:59:33.928Z,-3.47
2023-02-06T19:02:00.806Z,-3.58
2023-02-06T19:04:27.644Z,-3.65
2023-02-06T19:06:54.357Z,-3.70
2023-02-06T19:09:20.984Z,-3.76
2023-02-06T19:11:48.170Z,-3.87
2023-02-06T19:14:17.147Z,-3.96
2023-02-06T19:16:49.030Z,-4.03
2023-02-06T19:19:15.784Z,-4.10
2023-02-06T19:21:44.256Z,-4.15
2023-02-06T19:24:13.932Z,-4.20
2023-02-06T19:26:40.905Z,-4.27
2023-02-06T19:29:07.965Z,-4.32
2023-02-06T19:31:36.076Z,-4.35
2023-02-06T19:34:02.850Z,-4.34
2023-02-06T19:36:30.504Z,-4.40
2023-02-06T19:39:02.854Z,-4.39
2023-02-06T19:41:31.562Z,-4.51
2023-02-06T19:44:02.478Z,-4.57
2023-02-06T19:46:29.100Z,-4.66
2023-02-06T19:48:55.891Z,-4.73
2023-02-06T19:51:31.453Z,-4.83
2023-02-06T19:53:59.429Z,-4.82
2023-02-06T19:56:34.576Z,-4.88
2023-02-06T19:59:03.656Z,-4.92
2023-02-06T20:01:31.259Z,-5.00
2023-02-06T20:04:00.174Z,-5.09
2023-02-06T20:06:28.632Z,-5.23
2023-02-06T20:08:57.107Z,-5.28
2023-02-06T20:11:23.975Z,-5.25
2023-02-06T20:13:52.215Z,-5.21
2023-02-06T20:16:24.909Z,-5.15
2023-02-06T20:18:52.062Z,-5.06
2023-02-06T20:21:39.072Z,-4.99
2023-02-06T20:24:10.249Z,-4.96
2023-02-06T20:26:39.100Z,-4.91
2023-02-06T20:29:07.641Z,-4.89
2023-02-06T20:31:35.987Z,-4.85
2023-02-06T20:34:03.116Z,-4.84
2023-02-06T20:36:29.980Z,-4.86
2023-02-06T20:38:59.827Z,-4.94
2023-02-06T20:41:31.082Z,-5.08
2023-02-06T20:43:59.768Z,-5.12
2023-02-06T20:46:29.687Z,-5.16
2023-02-06T20:49:00.986Z,-5.31
2023-02-06T20:51:28.646Z,-5.41
2023-02-06T20:53:55.351Z,-5.55
2023-02-06T20:56:23.000Z,-5.62
2023-02-06T20:58:51.032Z,-5.61
2023-02-06T21:01:23.635Z,-5.67
2023-02-06T21:03:52.113Z,-5.72
2023-02-06T21:06:18.873Z,-5.77
2023-02-06T21:08:47.651Z,-5.79
2023-02-06T21:11:14.428Z,-5.82
2023-02-06T21:13:41.432Z,-5.84
2023-02-06T21:16:09.181Z,-5.86
2023-02-06T21:18:36.883Z,-5.86
2023-02-06T21:21:09.350Z,-5.89
2023-02-06T21:23:37.572Z,-5.93
2023-02-06T21:26:05.344Z,-5.97
2023-02-06T21:28:34.028Z,-5.99
2023-02-06T21:31:06.737Z,-6.04
2023-02-06T21:33:34.237Z,-6.13
2023-02-06T21:36:06.913Z,-6.37
2023-02-06T21:38:34.863Z,-6.37
2023-02-06T21:41:06.975Z,-6.40
2023-02-06T21:43:34.550Z,-6.46
2023-02-06T21:46:01.279Z,-6.45
2023-02-06T21:48:27.996Z,-6.49
2023-02-06T21:50:54.925Z,-6.51
2023-02-06T21:53:22.321Z,-6.51
2023-02-06T21:55:48.898Z,-6.57
2023-02-06T21:58:15.675Z,-6.59
2023-02-06T22:00:47.212Z,-6.65
2023-02-06T22:03:14.612Z,-6.77
2023-02-06T22:05:41.296Z,-6.73
2023-02-06T22:08:07.920Z,-6.72
2023-02-06T22:10:37.954Z,-6.74
2023-02-06T22:13:05.945Z,-6.78
2023-02-06T22:15:33.506Z,-6.82
2023-02-06T22:18:00.321Z,-6.82
2023-02-06T22:20:27.124Z,-6.79
2023-02-06T22:22:54.965Z,-6.74
2023-02-06T22:25:21.980Z,-6.82
2023-02-06T22:27:48.617Z,-6.83
2023-02-06T22:30:15.349Z,-6.89
2023-02-06T22:32:41.940Z,-6.93
2023-02-06T22:35:08.948Z,-6.96
2023-02-06T22:37:35.751Z,-6.99
2023-02-06T22:40:02.339Z,-6.99
2023-02-06T22:42:28.874Z,-7.00
2023-02-06T22:44:55.609Z,-7.03
2023-02-06T22:47:22.250Z,-7.06
2023-02-06T22:49:51.530Z,-7.09
2023-02-06T22:52:36.531Z,-7.10
2023-02-06T22:55:04.293Z,-7.16
2023-02-06T22:57:30.868Z,-7.24
2023-02-06T22:59:57.444Z,-7.27
2023-02-06T23:02:24.000Z,-7.30
2023-02-06T23:04:50.674Z,-7.31
2023-02-06T23:07:17.215Z,-7.33
2023-02-06T23:09:43.759Z,-7.36
2023-02-06T23:12:11.624Z,-7.38
2023-02-06T23:14:38.229Z,-7.37
2023-02-06T23:17:04.796Z,-7.36
2023-02-06T23:19:31.677Z,-7.40
2023-02-06T23:21:58.205Z,-7.38
2023-02-06T23:24:24.849Z,-7.35
2023-02-06T23:26:53.708Z,-7.36
2023-02-06T23:29:21.869Z,-7.36
2023-02-06T23:31:48.881Z,-7.38
2023-02-06T23:34:17.503Z,-7.39
2023-02-06T23:36:44.788Z,-7.41
2023-02-06T23:39:12.063Z,-7.45
2023-02-06T23:41:38.868Z,-7.49
2023-02-06T23:44:07.154Z,-7.54
2023-02-06T23:46:36.426Z,-7.56
2023-02-06T23:49:03.336Z,-7.59
2023-02-06T23:51:30.004Z,-7.64
2023-02-06T23:53:56.631Z,-7.71
2023-02-06T23:56:26.822Z,-7.74
2023-02-06T23:58:54.881Z,-7.75
